sensor_id;sensor_type;location;lat;lon;timestamp;temperature;humidity
79489;SHT31;68949;53.176;18.088;2023-07-31T00:01:38;17.82;73.41
79489;SHT31;68949;53.176;18.088;2023-07-31T00:04:04;17.77;73.54
79489;SHT31;68949;53.176;18.088;2023-07-31T00:06:31;17.75;73.73
79489;SHT31;68949;53.176;18.088;2023-07-31T00:08:58;17.71;73.88
79489;SHT31;68949;53.176;18.088;2023-07-31T00:11:25;17.66;74.04
79489;SHT31;68949;53.176;18.088;2023-07-31T00:13:52;17.64;74.18
79489;SHT31;68949;53.176;18.088;2023-07-31T00:16:20;17.60;74.35
79489;SHT31;68949;53.176;18.088;2023-07-31T00:18:47;17.57;74.52
79489;SHT31;68949;53.176;18.088;2023-07-31T00:21:13;17.55;74.68
79489;SHT31;68949;53.176;18.088;2023-07-31T00:23:40;17.52;74.83
79489;SHT31;68949;53.176;18.088;2023-07-31T00:26:06;17.50;74.96
79489;SHT31;68949;53.176;18.088;2023-07-31T00:28:33;17.48;75.04
79489;SHT31;68949;53.176;18.088;2023-07-31T00:31:00;17.48;75.15
79489;SHT31;68949;53.176;18.088;2023-07-31T00:33:28;17.47;75.25
79489;SHT31;68949;53.176;18.088;2023-07-31T00:35:57;17.47;75.30
79489;SHT31;68949;53.176;18.088;2023-07-31T00:38:26;17.48;75.30
79489;SHT31;68949;53.176;18.088;2023-07-31T00:40:52;17.47;75.43
79489;SHT31;68949;53.176;18.088;2023-07-31T00:43:20;17.44;75.56
79489;SHT31;68949;53.176;18.088;2023-07-31T00:45:46;17.40;75.77
79489;SHT31;68949;53.176;18.088;2023-07-31T00:48:13;17.40;75.83
79489;SHT31;68949;53.176;18.088;2023-07-31T00:50:40;17.35;75.96
79489;SHT31;68949;53.176;18.088;2023-07-31T00:53:07;17.34;76.07
79489;SHT31;68949;53.176;18.088;2023-07-31T00:55:34;17.33;76.24
79489;SHT31;68949;53.176;18.088;2023-07-31T00:58:01;17.31;76.67
79489;SHT31;68949;53.176;18.088;2023-07-31T01:00:27;17.26;76.95
79489;SHT31;68949;53.176;18.088;2023-07-31T01:02:54;17.22;77.21
79489;SHT31;68949;53.176;18.088;2023-07-31T01:05:25;17.15;77.47
79489;SHT31;68949;53.176;18.088;2023-07-31T01:08:17;17.08;77.66
79489;SHT31;68949;53.176;18.088;2023-07-31T01:10:55;17.05;77.84
79489;SHT31;68949;53.176;18.088;2023-07-31T01:13:35;17.07;77.93
79489;SHT31;68949;53.176;18.088;2023-07-31T01:16:02;17.06;77.96
79489;SHT31;68949;53.176;18.088;2023-07-31T01:18:29;17.03;78.00
79489;SHT31;68949;53.176;18.088;2023-07-31T01:20:59;17.02;78.15
79489;SHT31;68949;53.176;18.088;2023-07-31T01:26:56;17.06;78.08
79489;SHT31;68949;53.176;18.088;2023-07-31T01:29:36;17.04;78.06
79489;SHT31;68949;53.176;18.088;2023-07-31T01:32:26;17.02;78.04
79489;SHT31;68949;53.176;18.088;2023-07-31T01:34:56;17.03;77.94
79489;SHT31;68949;53.176;18.088;2023-07-31T01:37:28;17.05;77.80
79489;SHT31;68949;53.176;18.088;2023-07-31T01:39:56;17.02;77.80
79489;SHT31;68949;53.176;18.088;2023-07-31T01:42:23;17.01;77.76
79489;SHT31;68949;53.176;18.088;2023-07-31T01:44:50;16.92;77.82
79489;SHT31;68949;53.176;18.088;2023-07-31T01:47:17;16.90;77.89
79489;SHT31;68949;53.176;18.088;2023-07-31T01:49:43;16.85;77.97
79489;SHT31;68949;53.176;18.088;2023-07-31T01:52:10;16.80;77.99
79489;SHT31;68949;53.176;18.088;2023-07-31T01:54:37;16.78;78.02
79489;SHT31;68949;53.176;18.088;2023-07-31T01:57:03;16.73;78.17
79489;SHT31;68949;53.176;18.088;2023-07-31T01:59:30;16.71;78.24
79489;SHT31;68949;53.176;18.088;2023-07-31T02:01:57;16.71;78.26
79489;SHT31;68949;53.176;18.088;2023-07-31T02:04:24;16.67;78.30
79489;SHT31;68949;53.176;18.088;2023-07-31T02:06:50;16.66;78.34
79489;SHT31;68949;53.176;18.088;2023-07-31T02:09:17;16.65;78.31
79489;SHT31;68949;53.176;18.088;2023-07-31T02:11:43;16.62;78.40
79489;SHT31;68949;53.176;18.088;2023-07-31T02:14:10;16.58;78.50
79489;SHT31;68949;53.176;18.088;2023-07-31T02:16:37;16.54;78.59
79489;SHT31;68949;53.176;18.088;2023-07-31T02:19:03;16.54;78.63
79489;SHT31;68949;53.176;18.088;2023-07-31T02:21:30;16.48;78.72
79489;SHT31;68949;53.176;18.088;2023-07-31T02:23:57;16.43;78.79
79489;SHT31;68949;53.176;18.088;2023-07-31T02:26:23;16.39;78.81
79489;SHT31;68949;53.176;18.088;2023-07-31T02:28:50;16.38;78.81
79489;SHT31;68949;53.176;18.088;2023-07-31T02:31:16;16.34;78.91
79489;SHT31;68949;53.176;18.088;2023-07-31T02:33:43;16.34;78.97
79489;SHT31;68949;53.176;18.088;2023-07-31T02:36:10;16.33;78.91
79489;SHT31;68949;53.176;18.088;2023-07-31T02:38:37;16.27;79.05
79489;SHT31;68949;53.176;18.088;2023-07-31T02:41:04;16.20;79.14
79489;SHT31;68949;53.176;18.088;2023-07-31T02:43:30;16.17;79.24
79489;SHT31;68949;53.176;18.088;2023-07-31T02:45:57;16.15;79.30
79489;SHT31;68949;53.176;18.088;2023-07-31T02:48:24;16.14;79.32
79489;SHT31;68949;53.176;18.088;2023-07-31T02:50:50;16.12;79.39
79489;SHT31;68949;53.176;18.088;2023-07-31T02:53:17;16.11;79.46
79489;SHT31;68949;53.176;18.088;2023-07-31T02:55:44;16.11;79.42
79489;SHT31;68949;53.176;18.088;2023-07-31T02:58:10;16.06;79.50
79489;SHT31;68949;53.176;18.088;2023-07-31T03:00:41;16.04;79.51
79489;SHT31;68949;53.176;18.088;2023-07-31T03:03:09;16.06;79.47
79489;SHT31;68949;53.176;18.088;2023-07-31T03:05:36;16.06;79.46
79489;SHT31;68949;53.176;18.088;2023-07-31T03:08:04;16.06;79.50
79489;SHT31;68949;53.176;18.088;2023-07-31T03:10:30;16.06;79.57
79489;SHT31;68949;53.176;18.088;2023-07-31T03:12:57;16.02;79.74
79489;SHT31;68949;53.176;18.088;2023-07-31T03:15:24;16.02;79.78
79489;SHT31;68949;53.176;18.088;2023-07-31T03:17:50;16.05;79.78
79489;SHT31;68949;53.176;18.088;2023-07-31T03:20:17;16.04;79.78
79489;SHT31;68949;53.176;18.088;2023-07-31T03:22:43;16.01;79.93
79489;SHT31;68949;53.176;18.088;2023-07-31T03:25:11;16.08;79.84
79489;SHT31;68949;53.176;18.088;2023-07-31T03:27:39;16.19;79.67
79489;SHT31;68949;53.176;18.088;2023-07-31T03:30:06;16.27;79.56
79489;SHT31;68949;53.176;18.088;2023-07-31T03:32:33;16.47;79.22
79489;SHT31;68949;53.176;18.088;2023-07-31T03:35:00;16.64;78.88
79489;SHT31;68949;53.176;18.088;2023-07-31T03:37:26;16.70;78.61
79489;SHT31;68949;53.176;18.088;2023-07-31T03:39:53;16.87;78.28
79489;SHT31;68949;53.176;18.088;2023-07-31T03:42:20;17.26;77.76
79489;SHT31;68949;53.176;18.088;2023-07-31T03:44:46;17.78;76.90
79489;SHT31;68949;53.176;18.088;2023-07-31T03:47:13;18.15;76.00
79489;SHT31;68949;53.176;18.088;2023-07-31T03:49:40;18.06;75.91
79489;SHT31;68949;53.176;18.088;2023-07-31T03:52:06;17.79;76.31
79489;SHT31;68949;53.176;18.088;2023-07-31T03:54:33;17.54;76.66
79489;SHT31;68949;53.176;18.088;2023-07-31T03:57:00;17.33;77.06
79489;SHT31;68949;53.176;18.088;2023-07-31T03:59:27;17.31;77.13
79489;SHT31;68949;53.176;18.088;2023-07-31T04:01:53;17.49;76.84
79489;SHT31;68949;53.176;18.088;2023-07-31T04:04:20;18.14;75.63
79489;SHT31;68949;53.176;18.088;2023-07-31T04:06:47;18.86;74.33
79489;SHT31;68949;53.176;18.088;2023-07-31T04:09:13;19.42;73.19
79489;SHT31;68949;53.176;18.088;2023-07-31T04:11:40;19.95;72.21
79489;SHT31;68949;53.176;18.088;2023-07-31T04:14:07;20.06;71.77
79489;SHT31;68949;53.176;18.088;2023-07-31T04:16:33;19.83;72.03
79489;SHT31;68949;53.176;18.088;2023-07-31T04:19:00;19.47;72.15
79489;SHT31;68949;53.176;18.088;2023-07-31T04:21:26;19.28;72.33
79489;SHT31;68949;53.176;18.088;2023-07-31T04:23:56;19.16;72.36
79489;SHT31;68949;53.176;18.088;2023-07-31T04:26:22;19.18;72.28
79489;SHT31;68949;53.176;18.088;2023-07-31T04:28:49;18.87;72.50
79489;SHT31;68949;53.176;18.088;2023-07-31T04:31:15;18.60;72.89
79489;SHT31;68949;53.176;18.088;2023-07-31T04:33:42;18.33;73.02
79489;SHT31;68949;53.176;18.088;2023-07-31T04:36:09;18.24;73.21
79489;SHT31;68949;53.176;18.088;2023-07-31T04:38:35;18.33;72.81
79489;SHT31;68949;53.176;18.088;2023-07-31T04:41:02;18.24;72.84
79489;SHT31;68949;53.176;18.088;2023-07-31T04:43:30;18.34;72.70
79489;SHT31;68949;53.176;18.088;2023-07-31T04:45:56;18.61;72.28
79489;SHT31;68949;53.176;18.088;2023-07-31T04:48:24;18.83;71.74
79489;SHT31;68949;53.176;18.088;2023-07-31T04:50:50;19.11;71.30
79489;SHT31;68949;53.176;18.088;2023-07-31T04:53:17;19.05;71.13
79489;SHT31;68949;53.176;18.088;2023-07-31T04:55:44;18.88;71.32
79489;SHT31;68949;53.176;18.088;2023-07-31T04:58:10;19.10;70.86
79489;SHT31;68949;53.176;18.088;2023-07-31T05:00:37;19.58;69.94
79489;SHT31;68949;53.176;18.088;2023-07-31T05:03:04;19.79;69.17
79489;SHT31;68949;53.176;18.088;2023-07-31T05:05:31;20.17;68.43
79489;SHT31;68949;53.176;18.088;2023-07-31T05:07:58;20.59;67.71
79489;SHT31;68949;53.176;18.088;2023-07-31T05:10:24;20.90;66.73
79489;SHT31;68949;53.176;18.088;2023-07-31T05:12:51;20.73;66.66
79489;SHT31;68949;53.176;18.088;2023-07-31T05:15:17;20.59;66.97
79489;SHT31;68949;53.176;18.088;2023-07-31T05:17:44;20.29;66.95
79489;SHT31;68949;53.176;18.088;2023-07-31T05:20:11;20.05;67.16
79489;SHT31;68949;53.176;18.088;2023-07-31T05:22:38;20.25;66.86
79489;SHT31;68949;53.176;18.088;2023-07-31T05:25:04;20.24;66.43
79489;SHT31;68949;53.176;18.088;2023-07-31T05:27:32;19.98;66.57
79489;SHT31;68949;53.176;18.088;2023-07-31T05:29:59;19.84;66.66
79489;SHT31;68949;53.176;18.088;2023-07-31T05:32:25;20.00;66.18
79489;SHT31;68949;53.176;18.088;2023-07-31T05:34:52;20.50;65.50
79489;SHT31;68949;53.176;18.088;2023-07-31T05:37:19;20.83;64.63
79489;SHT31;68949;53.176;18.088;2023-07-31T05:39:46;20.83;64.38
79489;SHT31;68949;53.176;18.088;2023-07-31T05:42:13;21.07;64.00
79489;SHT31;68949;53.176;18.088;2023-07-31T05:44:40;21.27;63.31
79489;SHT31;68949;53.176;18.088;2023-07-31T05:47:06;21.40;62.71
79489;SHT31;68949;53.176;18.088;2023-07-31T05:49:33;21.57;62.44
79489;SHT31;68949;53.176;18.088;2023-07-31T05:52:00;21.64;61.98
79489;SHT31;68949;53.176;18.088;2023-07-31T05:54:27;21.83;61.67
79489;SHT31;68949;53.176;18.088;2023-07-31T05:56:53;21.94;61.36
79489;SHT31;68949;53.176;18.088;2023-07-31T05:59:20;22.04;61.15
79489;SHT31;68949;53.176;18.088;2023-07-31T06:01:47;22.10;60.52
79489;SHT31;68949;53.176;18.088;2023-07-31T06:04:13;22.17;59.89
79489;SHT31;68949;53.176;18.088;2023-07-31T06:06:40;22.17;59.84
79489;SHT31;68949;53.176;18.088;2023-07-31T06:09:07;22.31;59.87
79489;SHT31;68949;53.176;18.088;2023-07-31T06:11:33;22.35;59.97
79489;SHT31;68949;53.176;18.088;2023-07-31T06:14:00;22.43;59.23
79489;SHT31;68949;53.176;18.088;2023-07-31T06:16:27;22.41;59.14
79489;SHT31;68949;53.176;18.088;2023-07-31T06:18:53;22.32;58.75
79489;SHT31;68949;53.176;18.088;2023-07-31T06:21:20;22.13;58.93
79489;SHT31;68949;53.176;18.088;2023-07-31T06:23:47;21.82;59.19
79489;SHT31;68949;53.176;18.088;2023-07-31T06:26:13;21.79;59.27
79489;SHT31;68949;53.176;18.088;2023-07-31T06:28:40;21.86;59.15
79489;SHT31;68949;53.176;18.088;2023-07-31T06:31:08;21.92;59.21
79489;SHT31;68949;53.176;18.088;2023-07-31T06:33:35;21.92;59.00
79489;SHT31;68949;53.176;18.088;2023-07-31T06:36:01;21.92;59.22
79489;SHT31;68949;53.176;18.088;2023-07-31T06:38:28;21.92;59.11
79489;SHT31;68949;53.176;18.088;2023-07-31T06:40:55;21.82;58.57
79489;SHT31;68949;53.176;18.088;2023-07-31T06:43:22;21.63;59.03
79489;SHT31;68949;53.176;18.088;2023-07-31T06:45:48;21.69;58.87
79489;SHT31;68949;53.176;18.088;2023-07-31T06:48:17;21.59;58.89
79489;SHT31;68949;53.176;18.088;2023-07-31T06:50:44;21.47;59.12
79489;SHT31;68949;53.176;18.088;2023-07-31T06:53:10;21.31;59.34
79489;SHT31;68949;53.176;18.088;2023-07-31T06:55:37;21.21;59.50
79489;SHT31;68949;53.176;18.088;2023-07-31T06:58:04;21.19;59.57
79489;SHT31;68949;53.176;18.088;2023-07-31T07:00:30;21.19;59.32
79489;SHT31;68949;53.176;18.088;2023-07-31T07:02:58;21.17;59.56
79489;SHT31;68949;53.176;18.088;2023-07-31T07:05:25;21.19;59.46
79489;SHT31;68949;53.176;18.088;2023-07-31T07:07:52;21.22;59.32
79489;SHT31;68949;53.176;18.088;2023-07-31T07:10:19;21.23;59.37
79489;SHT31;68949;53.176;18.088;2023-07-31T07:12:45;21.22;59.31
79489;SHT31;68949;53.176;18.088;2023-07-31T07:15:12;21.12;59.56
79489;SHT31;68949;53.176;18.088;2023-07-31T07:17:39;21.06;59.71
79489;SHT31;68949;53.176;18.088;2023-07-31T07:20:06;21.02;59.64
79489;SHT31;68949;53.176;18.088;2023-07-31T07:22:34;20.94;58.87
79489;SHT31;68949;53.176;18.088;2023-07-31T07:25:01;20.82;58.57
79489;SHT31;68949;53.176;18.088;2023-07-31T07:27:30;20.76;59.13
79489;SHT31;68949;53.176;18.088;2023-07-31T07:29:56;20.73;59.13
79489;SHT31;68949;53.176;18.088;2023-07-31T07:32:23;20.67;59.04
79489;SHT31;68949;53.176;18.088;2023-07-31T07:34:50;20.64;59.48
79489;SHT31;68949;53.176;18.088;2023-07-31T07:37:17;20.66;59.77
79489;SHT31;68949;53.176;18.088;2023-07-31T07:39:43;20.73;59.32
79489;SHT31;68949;53.176;18.088;2023-07-31T07:42:11;20.84;59.18
79489;SHT31;68949;53.176;18.088;2023-07-31T07:44:38;20.88;58.74
79489;SHT31;68949;53.176;18.088;2023-07-31T07:47:04;20.88;58.01
79489;SHT31;68949;53.176;18.088;2023-07-31T07:49:34;20.85;57.92
79489;SHT31;68949;53.176;18.088;2023-07-31T07:52:02;20.91;58.30
79489;SHT31;68949;53.176;18.088;2023-07-31T07:54:30;20.99;58.06
79489;SHT31;68949;53.176;18.088;2023-07-31T07:56:57;20.95;58.41
79489;SHT31;68949;53.176;18.088;2023-07-31T07:59:24;20.90;58.14
79489;SHT31;68949;53.176;18.088;2023-07-31T08:01:51;20.83;58.78
79489;SHT31;68949;53.176;18.088;2023-07-31T08:04:18;20.81;58.83
79489;SHT31;68949;53.176;18.088;2023-07-31T08:06:45;20.80;58.77
79489;SHT31;68949;53.176;18.088;2023-07-31T08:09:11;20.73;58.80
79489;SHT31;68949;53.176;18.088;2023-07-31T08:11:38;20.75;59.07
79489;SHT31;68949;53.176;18.088;2023-07-31T08:14:05;20.75;58.57
79489;SHT31;68949;53.176;18.088;2023-07-31T08:16:31;20.72;58.45
79489;SHT31;68949;53.176;18.088;2023-07-31T08:18:58;20.66;58.77
79489;SHT31;68949;53.176;18.088;2023-07-31T08:21:25;20.70;58.98
79489;SHT31;68949;53.176;18.088;2023-07-31T08:23:52;20.74;59.23
79489;SHT31;68949;53.176;18.088;2023-07-31T08:26:19;20.82;59.08
79489;SHT31;68949;53.176;18.088;2023-07-31T08:28:47;20.93;59.10
79489;SHT31;68949;53.176;18.088;2023-07-31T08:31:13;20.96;58.68
79489;SHT31;68949;53.176;18.088;2023-07-31T08:33:40;21.00;58.22
79489;SHT31;68949;53.176;18.088;2023-07-31T08:36:07;21.01;57.44
79489;SHT31;68949;53.176;18.088;2023-07-31T08:38:34;21.08;57.60
79489;SHT31;68949;53.176;18.088;2023-07-31T08:41:02;21.09;57.57
79489;SHT31;68949;53.176;18.088;2023-07-31T08:43:31;21.19;58.26
79489;SHT31;68949;53.176;18.088;2023-07-31T08:45:59;21.32;58.07
79489;SHT31;68949;53.176;18.088;2023-07-31T08:48:28;21.39;57.65
79489;SHT31;68949;53.176;18.088;2023-07-31T08:50:58;21.37;57.53
79489;SHT31;68949;53.176;18.088;2023-07-31T08:53:24;21.45;57.24
79489;SHT31;68949;53.176;18.088;2023-07-31T08:55:52;21.56;56.32
79489;SHT31;68949;53.176;18.088;2023-07-31T08:58:20;21.68;56.03
79489;SHT31;68949;53.176;18.088;2023-07-31T09:00:49;21.70;56.02
79489;SHT31;68949;53.176;18.088;2023-07-31T09:03:18;21.65;56.28
79489;SHT31;68949;53.176;18.088;2023-07-31T09:05:46;21.65;56.43
79489;SHT31;68949;53.176;18.088;2023-07-31T09:08:13;21.61;56.27
79489;SHT31;68949;53.176;18.088;2023-07-31T09:10:46;21.62;55.71
79489;SHT31;68949;53.176;18.088;2023-07-31T09:13:14;21.67;55.97
79489;SHT31;68949;53.176;18.088;2023-07-31T09:15:43;21.78;56.43
79489;SHT31;68949;53.176;18.088;2023-07-31T09:18:12;21.90;56.30
79489;SHT31;68949;53.176;18.088;2023-07-31T09:20:40;21.90;56.21
79489;SHT31;68949;53.176;18.088;2023-07-31T09:23:08;21.87;56.32
79489;SHT31;68949;53.176;18.088;2023-07-31T09:25:42;21.83;56.25
79489;SHT31;68949;53.176;18.088;2023-07-31T09:28:11;21.78;56.39
79489;SHT31;68949;53.176;18.088;2023-07-31T09:30:45;21.83;56.62
79489;SHT31;68949;53.176;18.088;2023-07-31T09:33:17;21.91;57.16
79489;SHT31;68949;53.176;18.088;2023-07-31T09:35:46;22.00;56.85
79489;SHT31;68949;53.176;18.088;2023-07-31T09:38:17;21.99;56.86
79489;SHT31;68949;53.176;18.088;2023-07-31T09:40:48;21.86;56.84
79489;SHT31;68949;53.176;18.088;2023-07-31T09:43:18;21.74;57.39
79489;SHT31;68949;53.176;18.088;2023-07-31T09:45:47;21.66;57.80
79489;SHT31;68949;53.176;18.088;2023-07-31T09:48:20;21.63;57.98
79489;SHT31;68949;53.176;18.088;2023-07-31T09:50:47;21.58;57.99
79489;SHT31;68949;53.176;18.088;2023-07-31T09:53:16;21.59;57.89
79489;SHT31;68949;53.176;18.088;2023-07-31T09:55:50;21.60;58.16
79489;SHT31;68949;53.176;18.088;2023-07-31T09:58:17;21.59;57.98
79489;SHT31;68949;53.176;18.088;2023-07-31T10:00:45;21.47;58.26
79489;SHT31;68949;53.176;18.088;2023-07-31T10:03:13;21.45;58.83
79489;SHT31;68949;53.176;18.088;2023-07-31T10:05:45;21.38;58.60
79489;SHT31;68949;53.176;18.088;2023-07-31T10:08:18;21.21;58.31
79489;SHT31;68949;53.176;18.088;2023-07-31T10:10:58;20.99;60.49
79489;SHT31;68949;53.176;18.088;2023-07-31T10:13:32;20.71;63.24
79489;SHT31;68949;53.176;18.088;2023-07-31T10:16:01;20.43;64.80
79489;SHT31;68949;53.176;18.088;2023-07-31T10:18:29;20.11;66.54
79489;SHT31;68949;53.176;18.088;2023-07-31T10:20:59;19.92;67.36
79489;SHT31;68949;53.176;18.088;2023-07-31T10:23:26;19.88;67.91
79489;SHT31;68949;53.176;18.088;2023-07-31T10:25:53;19.90;68.44
79489;SHT31;68949;53.176;18.088;2023-07-31T10:28:25;19.98;68.89
79489;SHT31;68949;53.176;18.088;2023-07-31T10:30:53;20.03;69.11
79489;SHT31;68949;53.176;18.088;2023-07-31T10:33:20;20.10;69.13
79489;SHT31;68949;53.176;18.088;2023-07-31T10:35:48;20.15;68.87
79489;SHT31;68949;53.176;18.088;2023-07-31T10:38:15;20.21;69.29
79489;SHT31;68949;53.176;18.088;2023-07-31T10:40:42;20.32;69.35
79489;SHT31;68949;53.176;18.088;2023-07-31T10:43:09;20.47;69.37
79489;SHT31;68949;53.176;18.088;2023-07-31T10:45:52;20.65;69.06
79489;SHT31;68949;53.176;18.088;2023-07-31T10:48:19;20.87;68.95
79489;SHT31;68949;53.176;18.088;2023-07-31T10:50:47;21.14;68.24
79489;SHT31;68949;53.176;18.088;2023-07-31T10:53:30;21.43;68.09
79489;SHT31;68949;53.176;18.088;2023-07-31T10:56:02;21.64;67.93
79489;SHT31;68949;53.176;18.088;2023-07-31T10:58:34;21.89;67.51
79489;SHT31;68949;53.176;18.088;2023-07-31T11:01:04;22.10;67.16
79489;SHT31;68949;53.176;18.088;2023-07-31T11:03:43;22.22;66.97
79489;SHT31;68949;53.176;18.088;2023-07-31T11:06:13;22.23;67.17
79489;SHT31;68949;53.176;18.088;2023-07-31T11:08:49;22.19;67.02
79489;SHT31;68949;53.176;18.088;2023-07-31T11:11:18;22.16;66.32
79489;SHT31;68949;53.176;18.088;2023-07-31T11:13:50;22.10;65.92
79489;SHT31;68949;53.176;18.088;2023-07-31T11:16:22;21.95;65.56
79489;SHT31;68949;53.176;18.088;2023-07-31T11:18:51;21.78;65.22
79489;SHT31;68949;53.176;18.088;2023-07-31T11:21:20;21.57;65.37
79489;SHT31;68949;53.176;18.088;2023-07-31T11:23:52;21.34;65.47
79489;SHT31;68949;53.176;18.088;2023-07-31T11:26:23;21.08;65.09
79489;SHT31;68949;53.176;18.088;2023-07-31T11:28:51;20.88;65.50
79489;SHT31;68949;53.176;18.088;2023-07-31T11:31:18;20.67;65.41
79489;SHT31;68949;53.176;18.088;2023-07-31T11:33:45;20.52;65.55
79489;SHT31;68949;53.176;18.088;2023-07-31T11:36:19;20.43;65.60
79489;SHT31;68949;53.176;18.088;2023-07-31T11:38:47;20.28;64.46
79489;SHT31;68949;53.176;18.088;2023-07-31T11:41:16;20.05;64.47
79489;SHT31;68949;53.176;18.088;2023-07-31T11:43:43;19.82;65.22
79489;SHT31;68949;53.176;18.088;2023-07-31T11:46:12;19.58;67.19
79489;SHT31;68949;53.176;18.088;2023-07-31T11:48:41;19.36;68.81
79489;SHT31;68949;53.176;18.088;2023-07-31T11:51:08;19.15;69.93
79489;SHT31;68949;53.176;18.088;2023-07-31T11:53:51;19.01;70.73
79489;SHT31;68949;53.176;18.088;2023-07-31T11:56:24;19.04;70.95
79489;SHT31;68949;53.176;18.088;2023-07-31T11:58:53;19.22;70.75
79489;SHT31;68949;53.176;18.088;2023-07-31T12:01:26;19.35;70.82
79489;SHT31;68949;53.176;18.088;2023-07-31T12:03:54;19.43;70.58
79489;SHT31;68949;53.176;18.088;2023-07-31T12:06:31;19.56;70.46
79489;SHT31;68949;53.176;18.088;2023-07-31T12:09:03;19.72;70.04
79489;SHT31;68949;53.176;18.088;2023-07-31T12:11:54;19.92;69.65
79489;SHT31;68949;53.176;18.088;2023-07-31T12:14:21;20.19;68.91
79489;SHT31;68949;53.176;18.088;2023-07-31T12:16:59;20.40;68.46
79489;SHT31;68949;53.176;18.088;2023-07-31T12:19:30;20.63;67.70
79489;SHT31;68949;53.176;18.088;2023-07-31T12:21:59;20.77;67.07
79489;SHT31;68949;53.176;18.088;2023-07-31T12:24:28;20.75;66.95
79489;SHT31;68949;53.176;18.088;2023-07-31T12:26:55;20.66;67.07
79489;SHT31;68949;53.176;18.088;2023-07-31T12:29:22;20.59;67.33
79489;SHT31;68949;53.176;18.088;2023-07-31T12:31:49;20.58;67.47
79489;SHT31;68949;53.176;18.088;2023-07-31T12:34:16;20.57;67.15
79489;SHT31;68949;53.176;18.088;2023-07-31T12:36:44;20.51;66.63
79489;SHT31;68949;53.176;18.088;2023-07-31T12:39:12;20.44;66.15
79489;SHT31;68949;53.176;18.088;2023-07-31T12:41:39;20.33;66.06
79489;SHT31;68949;53.176;18.088;2023-07-31T12:44:05;20.25;66.27
79489;SHT31;68949;53.176;18.088;2023-07-31T12:46:32;20.18;66.44
79489;SHT31;68949;53.176;18.088;2023-07-31T12:48:59;20.10;66.62
79489;SHT31;68949;53.176;18.088;2023-07-31T12:51:26;19.99;66.56
79489;SHT31;68949;53.176;18.088;2023-07-31T12:53:52;19.88;67.01
79489;SHT31;68949;53.176;18.088;2023-07-31T12:56:19;19.83;67.31
79489;SHT31;68949;53.176;18.088;2023-07-31T12:58:45;19.72;67.54
79489;SHT31;68949;53.176;18.088;2023-07-31T13:01:12;19.63;67.93
79489;SHT31;68949;53.176;18.088;2023-07-31T13:03:39;19.59;68.19
79489;SHT31;68949;53.176;18.088;2023-07-31T13:06:06;19.60;68.27
79489;SHT31;68949;53.176;18.088;2023-07-31T13:08:33;19.58;68.35
79489;SHT31;68949;53.176;18.088;2023-07-31T13:10:59;19.48;68.34
79489;SHT31;68949;53.176;18.088;2023-07-31T13:13:26;19.37;68.71
79489;SHT31;68949;53.176;18.088;2023-07-31T13:15:53;19.32;68.95
79489;SHT31;68949;53.176;18.088;2023-07-31T13:18:19;19.34;69.09
79489;SHT31;68949;53.176;18.088;2023-07-31T13:20:46;19.40;68.87
79489;SHT31;68949;53.176;18.088;2023-07-31T13:23:13;19.47;68.88
79489;SHT31;68949;53.176;18.088;2023-07-31T13:25:39;19.58;68.99
79489;SHT31;68949;53.176;18.088;2023-07-31T13:28:06;19.66;68.82
79489;SHT31;68949;53.176;18.088;2023-07-31T13:30:33;19.60;68.82
79489;SHT31;68949;53.176;18.088;2023-07-31T13:32:59;19.52;69.16
79489;SHT31;68949;53.176;18.088;2023-07-31T13:35:26;19.46;69.32
79489;SHT31;68949;53.176;18.088;2023-07-31T13:37:53;19.48;69.46
79489;SHT31;68949;53.176;18.088;2023-07-31T13:40:19;19.54;69.66
79489;SHT31;68949;53.176;18.088;2023-07-31T13:42:46;19.59;69.67
79489;SHT31;68949;53.176;18.088;2023-07-31T13:45:14;19.58;69.60
79489;SHT31;68949;53.176;18.088;2023-07-31T13:47:41;19.54;69.80
79489;SHT31;68949;53.176;18.088;2023-07-31T13:50:08;19.51;69.96
79489;SHT31;68949;53.176;18.088;2023-07-31T13:52:35;19.45;70.14
79489;SHT31;68949;53.176;18.088;2023-07-31T13:55:01;19.44;70.34
79489;SHT31;68949;53.176;18.088;2023-07-31T13:57:28;19.46;70.44
79489;SHT31;68949;53.176;18.088;2023-07-31T13:59:55;19.50;70.25
79489;SHT31;68949;53.176;18.088;2023-07-31T14:02:22;19.49;70.29
79489;SHT31;68949;53.176;18.088;2023-07-31T14:04:49;19.48;70.32
79489;SHT31;68949;53.176;18.088;2023-07-31T14:07:15;19.44;70.47
79489;SHT31;68949;53.176;18.088;2023-07-31T14:09:43;19.42;70.40
79489;SHT31;68949;53.176;18.088;2023-07-31T14:12:10;19.36;70.49
79489;SHT31;68949;53.176;18.088;2023-07-31T14:14:37;19.32;70.67
79489;SHT31;68949;53.176;18.088;2023-07-31T14:17:04;19.30;70.86
79489;SHT31;68949;53.176;18.088;2023-07-31T14:19:31;19.37;70.87
79489;SHT31;68949;53.176;18.088;2023-07-31T14:21:58;19.43;70.85
79489;SHT31;68949;53.176;18.088;2023-07-31T14:24:26;19.42;70.72
79489;SHT31;68949;53.176;18.088;2023-07-31T14:26:53;19.43;71.06
79489;SHT31;68949;53.176;18.088;2023-07-31T14:29:19;19.44;71.56
79489;SHT31;68949;53.176;18.088;2023-07-31T14:31:46;19.44;71.79
79489;SHT31;68949;53.176;18.088;2023-07-31T14:34:13;19.44;71.79
79489;SHT31;68949;53.176;18.088;2023-07-31T14:36:39;19.41;71.87
79489;SHT31;68949;53.176;18.088;2023-07-31T14:39:06;19.40;72.21
79489;SHT31;68949;53.176;18.088;2023-07-31T14:41:33;19.40;72.35
79489;SHT31;68949;53.176;18.088;2023-07-31T14:43:59;19.41;72.06
79489;SHT31;68949;53.176;18.088;2023-07-31T14:46:26;19.40;72.14
79489;SHT31;68949;53.176;18.088;2023-07-31T14:48:53;19.40;72.13
79489;SHT31;68949;53.176;18.088;2023-07-31T14:51:19;19.41;72.40
79489;SHT31;68949;53.176;18.088;2023-07-31T14:53:47;19.42;72.38
79489;SHT31;68949;53.176;18.088;2023-07-31T14:56:13;19.45;72.27
79489;SHT31;68949;53.176;18.088;2023-07-31T14:58:40;19.55;72.24
79489;SHT31;68949;53.176;18.088;2023-07-31T15:01:07;19.67;72.21
79489;SHT31;68949;53.176;18.088;2023-07-31T15:03:33;19.74;71.96
79489;SHT31;68949;53.176;18.088;2023-07-31T15:06:00;19.81;71.84
79489;SHT31;68949;53.176;18.088;2023-07-31T15:08:27;19.94;71.52
79489;SHT31;68949;53.176;18.088;2023-07-31T15:10:54;20.01;71.20
79489;SHT31;68949;53.176;18.088;2023-07-31T15:13:24;20.16;71.15
79489;SHT31;68949;53.176;18.088;2023-07-31T15:15:51;20.36;70.89
79489;SHT31;68949;53.176;18.088;2023-07-31T15:18:17;20.63;70.69
79489;SHT31;68949;53.176;18.088;2023-07-31T15:20:44;20.84;70.17
79489;SHT31;68949;53.176;18.088;2023-07-31T15:23:11;20.99;69.69